Terminal Aerodrome Forecast
Issued by NWS

Current Version | Previous Version | Text Only | Print | Product List | Glossary On
Versions: 1 2 3 4 5 6 7 8 9 10 11 12 13 14 15 16 17 18 19 20 21
000
FTUS43 KGRR 232345
TAFBTL
TAF
KBTL 232345Z 2400/2424 32009KT P6SM BKN100 BKN200
     FM240700 34008KT P6SM BKN020
     FM241000 35009KT P6SM BKN010
     FM241600 36010KT P6SM BKN025
     FM241900 36010KT P6SM BKN035=

USA.gov is the U.S. government's official web portal to all federal, state and local government web resources and services.